Time;durP1;ratioP1;P1;durP2;ratioP2;P2;SDS_P1;SDS_P2;PMS_P1;PMS_P2;Temp;Humidity;BMP_temperature;BMP_pressure;BME280_temperature;BME280_humidity;BME280_pressure;Samples;Min_cycle;Max_cycle;Signal;HPM_P1;HPM_P2
2021/11/04 00:00:51;;;;;;;38.47;29.95;;;;;;;7.14;100.00;98135.66;2096959;28;20229;-74
2021/11/04 00:01:52;;;;;;;47.42;31.20;;;;;;;7.16;100.00;98130.84;2096496;28;20230;-74
2021/11/04 00:02:54;;;;;;;38.73;29.80;;;;;;;7.16;100.00;98132.72;2096716;28;20226;-74
2021/11/04 00:03:55;;;;;;;39.22;30.05;;;;;;;7.17;100.00;98124.47;2095959;28;20557;-74
2021/11/04 00:04:57;;;;;;;39.43;29.93;;;;;;;7.19;100.00;98129.47;2087770;28;20257;-75
2021/11/04 00:05:58;;;;;;;40.20;29.80;;;;;;;7.18;100.00;98119.94;2087862;28;20226;-74
2021/11/04 00:06:59;;;;;;;36.40;30.53;;;;;;;7.18;100.00;98123.38;2096014;28;20271;-75
2021/11/04 00:08:04;;;;;;;39.88;31.30;;;;;;;7.17;100.00;98119.16;2096844;28;20221;-73
2021/11/04 00:09:05;;;;;;;39.42;30.40;;;;;;;7.16;100.00;98119.47;2096963;28;20590;-76
2021/11/04 00:10:09;;;;;;;42.30;31.87;;;;;;;7.18;100.00;98120.72;2096004;28;20229;-73
2021/11/04 00:11:09;;;;;;;40.17;30.50;;;;;;;7.19;100.00;98121.50;2102286;28;20298;-74
2021/11/04 00:12:12;;;;;;;34.67;29.52;;;;;;;7.19;100.00;98111.69;2098291;28;20232;-75
2021/11/04 00:13:14;;;;;;;35.03;28.92;;;;;;;7.20;100.00;98110.59;2095023;28;20691;-75
2021/11/04 00:14:16;;;;;;;37.08;29.75;;;;;;;7.20;100.00;98107.94;2087909;28;20233;-75
2021/11/04 00:15:18;;;;;;;40.53;30.50;;;;;;;7.21;100.00;98104.22;2087878;28;20729;-75
2021/11/04 00:16:19;;;;;;;41.10;30.75;;;;;;;7.20;100.00;98102.63;2098237;28;20263;-74
2021/11/04 00:17:20;;;;;;;38.60;30.43;;;;;;;7.20;100.00;98102.63;2096071;28;20218;-75
2021/11/04 00:18:21;;;;;;;38.15;30.02;;;;;;;7.23;100.00;98107.38;2096072;28;20718;-75
2021/11/04 00:19:24;;;;;;;38.07;31.03;;;;;;;7.21;100.00;98096.28;2095042;28;20649;-74
2021/11/04 00:20:28;;;;;;;36.08;30.45;;;;;;;7.24;100.00;98089.56;2096072;28;20271;-75
2021/11/04 00:21:31;;;;;;;36.00;30.60;;;;;;;7.24;100.00;98093.00;2095910;28;20274;-75
2021/11/04 00:22:33;;;;;;;39.08;30.45;;;;;;;7.23;100.00;98091.44;2096180;28;20218;-75
2021/11/04 00:23:35;;;;;;;38.33;30.55;;;;;;;7.22;100.00;98092.53;2095719;28;20233;-75
2021/11/04 00:24:37;;;;;;;39.38;30.63;;;;;;;7.23;100.00;98094.09;2096104;28;20249;-75
2021/11/04 00:25:40;;;;;;;36.97;30.52;;;;;;;7.22;100.00;98097.84;2112247;28;20240;-75
2021/11/04 00:26:40;;;;;;;39.17;30.13;;;;;;;7.22;100.00;98094.41;2095885;28;20229;-75
2021/11/04 00:27:45;;;;;;;37.30;29.67;;;;;;;7.20;100.00;98085.94;2095959;28;20230;-75
2021/11/04 00:28:46;;;;;;;40.20;30.48;;;;;;;7.20;100.00;98084.06;2095747;28;20228;-75
2021/11/04 00:29:48;;;;;;;39.28;30.13;;;;;;;7.28;100.00;98083.38;2096792;28;20221;-74
2021/11/04 00:30:50;;;;;;;35.47;30.15;;;;;;;7.29;100.00;98076.97;2095410;28;20687;-75
2021/11/04 00:31:51;;;;;;;49.03;30.67;;;;;;;7.29;100.00;98084.94;2097188;28;20797;-75
2021/11/04 00:32:55;;;;;;;34.65;29.65;;;;;;;7.26;100.00;98080.22;2097946;28;20213;-74
2021/11/04 00:33:56;;;;;;;35.13;29.23;;;;;;;7.24;100.00;98071.78;2098375;28;20241;-75
2021/11/04 00:35:00;;;;;;;32.43;27.27;;;;;;;7.31;100.00;98066.88;2098500;28;20253;-75
2021/11/04 00:36:05;;;;;;;30.98;27.75;;;;;;;7.39;100.00;98061.94;2098534;28;20214;-75
2021/11/04 00:37:06;;;;;;;31.38;27.80;;;;;;;7.32;100.00;98063.13;2098403;28;20263;-75
2021/11/04 00:38:08;;;;;;;32.78;27.77;;;;;;;7.30;100.00;98069.81;2098003;28;20229;-75
2021/11/04 00:39:11;;;;;;;31.65;28.13;;;;;;;7.28;100.00;98062.13;2097492;28;20222;-75
2021/11/04 00:40:16;;;;;;;30.92;27.13;;;;;;;7.27;100.00;98063.22;2097735;28;20282;-75
2021/11/04 00:41:18;;;;;;;31.27;27.52;;;;;;;7.26;100.00;98048.41;2098205;28;20222;-75
2021/11/04 00:42:21;;;;;;;31.75;27.88;;;;;;;7.27;100.00;98049.97;2098553;28;20225;-75
2021/11/04 00:43:22;;;;;;;34.42;28.48;;;;;;;7.27;100.00;98049.97;2098241;28;20263;-74
2021/11/04 00:44:23;;;;;;;32.63;27.75;;;;;;;7.25;100.00;98052.13;2097540;28;20221;-75
2021/11/04 00:45:25;;;;;;;32.67;27.27;;;;;;;7.28;100.00;98058.69;2097650;28;20253;-75
2021/11/04 00:46:26;;;;;;;35.70;26.48;;;;;;;7.27;100.00;98059.78;2098256;28;20226;-75
2021/11/04 00:47:28;;;;;;;32.57;27.47;;;;;;;7.23;100.00;98064.91;2098366;28;20309;-75
2021/11/04 00:48:29;;;;;;;36.15;27.45;;;;;;;7.23;100.00;98064.91;2098305;28;20221;-75
2021/11/04 00:49:30;;;;;;;29.47;26.07;;;;;;;7.25;100.00;98065.41;2097087;28;20313;-75
2021/11/04 00:50:33;;;;;;;32.95;28.27;;;;;;;7.23;100.00;98067.56;2097627;28;20673;-75
2021/11/04 00:51:33;;;;;;;31.35;27.67;;;;;;;7.21;100.00;98061.78;2098351;28;20226;-75
2021/11/04 00:52:36;;;;;;;30.10;26.23;;;;;;;7.21;100.00;98056.47;2097586;28;20228;-75
2021/11/04 00:53:37;;;;;;;36.78;27.25;;;;;;;7.21;100.00;98056.47;2088994;28;20234;-73
2021/11/04 00:54:40;;;;;;;30.20;26.93;;;;;;;7.18;100.00;98049.09;2097438;28;20230;-74
2021/11/04 00:55:41;;;;;;;31.23;27.75;;;;;;;7.19;100.00;98047.22;2097784;28;20464;-74
2021/11/04 00:56:42;;;;;;;32.42;27.27;;;;;;;7.16;100.00;98032.69;2098267;28;20229;-75
2021/11/04 00:57:44;;;;;;;30.80;27.50;;;;;;;7.14;100.00;98018.19;2098196;28;20245;-74
2021/11/04 00:58:49;;;;;;;30.15;27.00;;;;;;;7.13;100.00;98022.69;2097317;28;20455;-74
2021/11/04 00:59:50;;;;;;;28.40;25.35;;;;;;;7.12;100.00;98033.59;2097518;28;20275;-74
2021/11/04 01:00:52;;;;;;;33.05;27.38;;;;;;;7.11;100.00;98032.03;2098086;28;20275;-75
2021/11/04 01:01:55;;;;;;;30.40;27.23;;;;;;;7.10;100.00;98028.59;2103211;28;20675;-75
2021/11/04 01:02:56;;;;;;;30.95;27.25;;;;;;;7.09;100.00;98027.00;2097092;28;20230;-75
2021/11/04 01:03:58;;;;;;;31.38;27.98;;;;;;;7.05;100.00;98021.53;2105886;28;20236;-75
2021/11/04 01:04:59;;;;;;;30.08;26.92;;;;;;;7.04;100.00;98021.84;2106488;28;20225;-74
2021/11/04 01:06:01;;;;;;;32.13;26.97;;;;;;;7.01;100.00;98020.53;2106587;28;20252;-75
2021/11/04 01:07:01;;;;;;;32.00;27.48;;;;;;;6.97;100.00;98019.59;2106495;28;20671;-75
2021/11/04 01:08:04;;;;;;;29.40;26.40;;;;;;;7.00;100.00;98018.19;2106532;28;20640;-75
2021/11/04 01:09:04;;;;;;;31.20;27.92;;;;;;;6.97;100.00;98018.81;2106480;28;20221;-75
2021/11/04 01:10:08;;;;;;;30.47;27.30;;;;;;;6.97;100.00;98018.81;2105702;28;20303;-75
2021/11/04 01:11:09;;;;;;;30.27;27.00;;;;;;;6.96;100.00;98011.94;2096936;28;20226;-75
2021/11/04 01:12:11;;;;;;;30.17;26.93;;;;;;;6.95;100.00;98011.16;2097524;28;20230;-75
2021/11/04 01:13:12;;;;;;;32.80;27.70;;;;;;;6.93;100.00;98009.84;2098217;28;20757;-74
2021/11/04 01:14:14;;;;;;;33.80;27.10;;;;;;;6.98;100.00;98013.19;2098129;28;20614;-75
2021/11/04 01:15:15;;;;;;;31.65;27.63;;;;;;;6.96;100.00;98011.94;2097187;28;20221;-75
2021/11/04 01:16:17;;;;;;;31.20;27.90;;;;;;;6.97;100.00;98011.63;2097327;28;20218;-75
2021/11/04 01:17:19;;;;;;;34.05;28.17;;;;;;;6.95;100.00;98008.50;2096925;28;20214;-75
2021/11/04 01:18:21;;;;;;;31.00;27.90;;;;;;;6.98;100.00;98005.25;2097389;28;20696;-75
2021/11/04 01:19:21;;;;;;;31.33;27.92;;;;;;;6.97;100.00;98008.19;2099779;28;20230;-74
2021/11/04 01:20:23;;;;;;;29.83;26.70;;;;;;;6.93;100.00;98000.03;2097182;28;20222;-74
2021/11/04 01:21:24;;;;;;;32.60;27.55;;;;;;;6.94;100.00;98003.47;2105242;28;20229;-75
2021/11/04 01:22:26;;;;;;;30.93;27.67;;;;;;;6.92;100.00;98000.34;2105627;28;20248;-75
2021/11/04 01:23:28;;;;;;;31.45;28.10;;;;;;;6.89;100.00;98007.03;2097284;28;20313;-75
2021/11/04 01:24:30;;;;;;;31.48;27.77;;;;;;;6.89;100.00;98019.50;2097939;28;20630;-75
2021/11/04 01:25:32;;;;;;;31.15;27.55;;;;;;;6.87;100.00;98019.03;2097900;28;20261;-75
2021/11/04 01:26:34;;;;;;;33.67;28.08;;;;;;;6.87;100.00;98022.44;2098052;28;20230;-76
2021/11/04 01:27:35;;;;;;;30.92;27.55;;;;;;;6.87;100.00;98011.06;2098067;28;20226;-75
2021/11/04 01:28:39;;;;;;;35.10;27.97;;;;;;;6.85;100.00;98006.03;2097060;28;20242;-76
2021/11/04 01:29:40;;;;;;;31.67;27.63;;;;;;;6.86;100.00;98004.94;2098512;28;20256;-76
2021/11/04 01:30:43;;;;;;;33.97;26.77;;;;;;;6.97;100.00;98005.53;2097982;28;20271;-75
2021/11/04 01:31:45;;;;;;;30.20;26.52;;;;;;;7.02;100.00;98000.13;2098103;28;20225;-75
2021/11/04 01:32:46;;;;;;;30.67;26.77;;;;;;;7.00;100.00;97997.75;2097149;28;20275;-76
2021/11/04 01:33:47;;;;;;;31.53;26.70;;;;;;;7.00;100.00;97991.69;2097081;28;20696;-75
2021/11/04 01:34:48;;;;;;;32.72;26.08;;;;;;;7.05;100.00;97995.00;2088977;28;20222;-75
2021/11/04 01:35:50;;;;;;;29.75;26.58;;;;;;;7.06;100.00;97982.53;2097118;28;20257;-75
2021/11/04 01:36:54;;;;;;;32.70;27.63;;;;;;;7.06;100.00;97985.19;2097870;28;20217;-76
2021/11/04 01:37:56;;;;;;;29.60;26.05;;;;;;;7.10;100.00;97986.16;2097454;28;20305;-75
2021/11/04 01:38:57;;;;;;;28.83;25.73;;;;;;;7.13;100.00;97995.41;2097976;28;20225;-75
2021/11/04 01:39:58;;;;;;;30.08;26.42;;;;;;;7.11;100.00;97990.38;2098018;28;20459;-75
2021/11/04 01:41:01;;;;;;;29.90;25.97;;;;;;;7.06;100.00;97998.44;2096925;28;20242;-75
2021/11/04 01:42:02;;;;;;;30.40;27.00;;;;;;;7.04;100.00;97987.38;2097252;28;20221;-76
2021/11/04 01:43:05;;;;;;;33.10;27.10;;;;;;;7.00;100.00;97984.50;2096995;28;20725;-76
2021/11/04 01:44:06;;;;;;;28.98;25.92;;;;;;;6.98;100.00;97988.53;2097739;28;20735;-75
2021/11/04 01:45:11;;;;;;;30.17;27.08;;;;;;;6.98;100.00;97985.91;2096685;28;20275;-75
2021/11/04 01:46:13;;;;;;;29.48;26.33;;;;;;;6.95;100.00;97986.47;2089323;28;20593;-75
2021/11/04 01:47:14;;;;;;;30.23;25.65;;;;;;;6.95;100.00;97989.13;2104435;28;20209;-75
2021/11/04 01:48:16;;;;;;;28.40;25.33;;;;;;;6.98;100.00;97993.84;2098855;28;20242;-75
2021/11/04 01:49:17;;;;;;;26.90;24.20;;;;;;;6.97;100.00;97997.59;2097060;28;20363;-75
2021/11/04 01:50:22;;;;;;;28.20;25.30;;;;;;;6.96;100.00;97990.72;2097201;28;20222;-76
2021/11/04 01:51:23;;;;;;;28.85;25.75;;;;;;;6.96;100.00;97999.47;2097551;28;20290;-75
2021/11/04 01:52:25;;;;;;;29.63;25.77;;;;;;;6.97;100.00;97994.94;2096860;28;20252;-76
2021/11/04 01:53:25;;;;;;;27.85;24.88;;;;;;;6.94;100.00;97988.34;2097172;28;20229;-75
2021/11/04 01:54:27;;;;;;;26.50;23.90;;;;;;;6.99;100.00;97998.06;2097854;28;20416;-76
2021/11/04 01:55:28;;;;;;;26.85;23.65;;;;;;;7.02;100.00;97994.81;2097734;28;20228;-75
2021/11/04 01:56:32;;;;;;;26.05;23.60;;;;;;;7.10;100.00;97996.75;2096907;28;20221;-75
2021/11/04 01:57:33;;;;;;;24.67;22.17;;;;;;;7.10;100.00;97986.16;2096407;28;20225;-76
2021/11/04 01:58:36;;;;;;;25.70;23.13;;;;;;;7.11;100.00;97986.94;2105533;28;20263;-76
2021/11/04 01:59:38;;;;;;;30.45;23.55;;;;;;;7.11;100.00;97986.94;2097432;28;20233;-75
2021/11/04 02:00:39;;;;;;;25.90;22.23;;;;;;;7.10;100.00;97980.84;2097594;28;20673;-75
2021/11/04 02:01:41;;;;;;;24.92;22.33;;;;;;;7.09;100.00;97985.38;2096928;28;20233;-75
2021/11/04 02:02:44;;;;;;;24.58;22.25;;;;;;;7.09;100.00;97973.97;2088378;28;20230;-76
2021/11/04 02:03:52;;;;;;;24.00;21.65;;;;;;;7.11;100.00;97966.50;2092092;28;20230;-75
2021/11/04 02:04:57;;;;;;;23.40;21.10;;;;;;;7.11;100.00;97971.00;2089528;28;20306;-75
2021/11/04 02:06:09;;;;;;;24.88;21.98;;;;;;;7.10;100.00;97970.22;2105460;28;20636;-76
2021/11/04 02:07:13;;;;;;;24.10;21.70;;;;;;;7.12;100.00;97975.22;2097465;28;20229;-76
2021/11/04 02:08:21;;;;;;;24.00;21.67;;;;;;;7.11;100.00;97971.78;2097724;28;20621;-76
2021/11/04 02:09:27;;;;;;;24.63;22.10;;;;;;;7.11;100.00;97961.19;2097394;28;20675;-75
2021/11/04 02:10:32;;;;;;;23.30;20.88;;;;;;;7.14;100.00;97960.59;2097798;28;20214;-75
2021/11/04 02:11:38;;;;;;;24.17;21.70;;;;;;;7.17;100.00;97964.53;2096391;28;20237;-75
2021/11/04 02:12:47;;;;;;;24.00;21.70;;;;;;;7.14;100.00;97970.44;2103158;28;20312;-75
2021/11/04 02:13:53;;;;;;;24.15;21.85;;;;;;;7.17;100.00;97962.66;2105231;28;20625;-75
2021/11/04 02:14:55;;;;;;;24.50;22.02;;;;;;;7.13;100.00;97953.75;2097275;28;20225;-75
2021/11/04 02:15:59;;;;;;;24.63;21.55;;;;;;;7.14;100.00;97955.31;2096375;28;20272;-75
2021/11/04 02:17:02;;;;;;;24.40;21.80;;;;;;;7.14;100.00;97960.59;2096987;28;20225;-76
2021/11/04 02:18:07;;;;;;;24.00;21.60;;;;;;;7.12;100.00;97949.50;2097546;28;20567;-75
2021/11/04 02:19:17;;;;;;;24.33;21.88;;;;;;;7.14;100.00;97949.22;2105528;28;20221;-75
2021/11/04 02:20:23;;;;;;;28.02;22.10;;;;;;;7.13;100.00;97939.69;2105171;28;20232;-75
2021/11/04 02:21:33;;;;;;;23.92;21.50;;;;;;;7.14;100.00;97952.66;2104982;28;20218;-76
2021/11/04 02:22:44;;;;;;;25.35;22.65;;;;;;;7.21;100.00;97949.56;2105085;28;20232;-76
2021/11/04 02:23:50;;;;;;;24.55;22.02;;;;;;;7.21;100.00;97950.38;2104624;28;20249;-75
2021/11/04 02:25:04;;;;;;;24.25;21.85;;;;;;;7.19;100.00;97941.91;2105323;28;20705;-76
2021/11/04 02:26:08;;;;;;;24.30;21.77;;;;;;;7.22;100.00;97946.63;2104300;28;20225;-76
2021/11/04 02:27:11;;;;;;;23.48;21.27;;;;;;;7.23;100.00;97942.09;2104854;28;20353;-75
2021/11/04 02:28:16;;;;;;;24.65;22.05;;;;;;;7.24;100.00;97946.31;2102381;28;28053;-75
2021/11/04 02:29:19;;;;;;;24.80;22.25;;;;;;;7.31;100.00;97949.34;2096556;28;20236;-75
2021/11/04 02:30:21;;;;;;;24.98;22.33;;;;;;;7.30;100.00;97937.16;2096301;28;20217;-76
2021/11/04 02:31:24;;;;;;;26.58;23.63;;;;;;;7.29;100.00;97928.41;2096518;28;20715;-75
2021/11/04 02:32:25;;;;;;;26.13;23.38;;;;;;;7.29;100.00;97925.75;2097488;28;20218;-75
2021/11/04 02:33:29;;;;;;;26.15;23.23;;;;;;;7.31;100.00;97936.09;2096638;28;20236;-75
2021/11/04 02:34:30;;;;;;;25.63;22.98;;;;;;;7.32;100.00;97948.25;2095982;28;20644;-75
2021/11/04 02:35:31;;;;;;;25.97;23.27;;;;;;;7.31;100.00;97938.72;2104936;28;20243;-75
2021/11/04 02:36:33;;;;;;;30.17;24.17;;;;;;;7.34;100.00;97935.47;2105862;28;20985;-75
2021/11/04 02:37:34;;;;;;;26.98;23.52;;;;;;;7.33;100.00;97936.56;2105790;28;20225;-76
2021/11/04 02:38:36;;;;;;;25.88;23.10;;;;;;;7.35;100.00;97927.19;2105700;28;20221;-76
2021/11/04 02:39:39;;;;;;;30.20;24.13;;;;;;;7.34;100.00;97922.19;2099048;28;20287;-75
2021/11/04 02:40:42;;;;;;;26.92;23.63;;;;;;;7.39;100.00;97916.00;2097218;28;20222;-75
2021/11/04 02:41:44;;;;;;;26.33;23.52;;;;;;;7.44;100.00;97918.50;2097366;28;20308;-75
2021/11/04 02:42:45;;;;;;;28.83;23.77;;;;;;;7.46;100.00;97919.78;2096569;28;20225;-75
2021/11/04 02:43:47;;;;;;;26.50;23.07;;;;;;;7.47;100.00;97915.25;2087833;28;20357;-75
2021/11/04 02:44:48;;;;;;;27.40;24.38;;;;;;;7.48;100.00;97908.88;2096739;28;20225;-75
2021/11/04 02:45:50;;;;;;;27.53;24.57;;;;;;;7.49;100.00;97907.78;2097478;28;20229;-75
2021/11/04 02:46:51;;;;;;;31.10;24.92;;;;;;;7.49;100.00;97902.47;2096530;28;20233;-75
2021/11/04 02:47:56;;;;;;;30.90;25.08;;;;;;;7.50;100.00;97904.03;2096633;28;20226;-76
2021/11/04 02:48:57;;;;;;;28.80;24.88;;;;;;;7.49;100.00;97907.78;2104481;28;20226;-76
2021/11/04 02:49:59;;;;;;;28.50;24.43;;;;;;;7.51;100.00;97906.38;2096572;28;20218;-75
2021/11/04 02:51:01;;;;;;;29.65;24.75;;;;;;;7.54;100.00;97910.28;2096878;28;20222;-75
2021/11/04 02:52:02;;;;;;;33.58;24.77;;;;;;;7.55;100.00;97906.56;2105101;28;20283;-76
2021/11/04 02:53:04;;;;;;;32.83;25.23;;;;;;;7.53;100.00;97909.50;2104981;28;20231;-75
2021/11/04 02:54:08;;;;;;;29.77;25.80;;;;;;;7.57;100.00;97910.47;2105018;28;20567;-75
2021/11/04 02:55:09;;;;;;;29.67;25.85;;;;;;;7.59;100.00;97907.53;2105150;28;20221;-75
2021/11/04 02:56:12;;;;;;;32.20;25.63;;;;;;;7.57;100.00;97899.09;2105614;28;20248;-75
2021/11/04 02:57:12;;;;;;;33.72;25.55;;;;;;;7.58;100.00;97903.31;2104417;28;20271;-75
2021/11/04 02:58:14;;;;;;;31.10;25.40;;;;;;;7.58;100.00;97900.66;2091986;28;20276;-75
2021/11/04 02:59:18;;;;;;;31.58;26.85;;;;;;;7.58;100.00;97895.34;2092332;28;20234;-76
2021/11/04 03:00:19;;;;;;;30.40;25.98;;;;;;;7.58;100.00;97906.75;2096607;28;20225;-75
2021/11/04 03:01:20;;;;;;;30.40;25.13;;;;;;;7.60;100.00;97903.78;2097380;28;20297;-75
2021/11/04 03:02:21;;;;;;;30.88;25.38;;;;;;;7.58;100.00;97904.09;2097227;28;20680;-76
2021/11/04 03:03:23;;;;;;;28.83;25.83;;;;;;;7.62;100.00;97913.00;2104413;28;20631;-74
2021/11/04 03:04:24;;;;;;;31.08;25.45;;;;;;;7.61;100.00;97900.81;2095954;28;20635;-75
2021/11/04 03:05:26;;;;;;;29.90;25.50;;;;;;;7.65;100.00;97908.97;2096001;28;20214;-76
2021/11/04 03:06:29;;;;;;;27.48;24.58;;;;;;;7.66;100.00;97905.22;2104936;28;21314;-76
2021/11/04 03:07:31;;;;;;;28.05;24.25;;;;;;;7.68;100.00;97908.34;2104667;28;20308;-74
2021/11/04 03:08:33;;;;;;;27.45;24.70;;;;;;;7.70;100.00;97902.72;2104625;28;20225;-75
2021/11/04 03:09:34;;;;;;;27.17;24.27;;;;;;;7.72;100.00;97901.31;2105264;28;20221;-75
2021/11/04 03:10:36;;;;;;;26.00;23.17;;;;;;;7.70;100.00;97898.19;2105459;28;20218;-76
2021/11/04 03:11:38;;;;;;;25.90;23.20;;;;;;;7.73;100.00;97887.00;2104842;28;20299;-74
2021/11/04 03:12:40;;;;;;;25.27;22.95;;;;;;;7.78;100.00;97892.16;2104601;28;20308;-75
2021/11/04 03:13:41;;;;;;;25.15;22.65;;;;;;;7.79;100.00;97879.66;2104260;28;20768;-74
2021/11/04 03:14:44;;;;;;;25.92;22.77;;;;;;;7.77;100.00;97882.63;2095732;28;20262;-74
2021/11/04 03:15:47;;;;;;;25.75;22.95;;;;;;;7.79;100.00;97875.13;2104728;28;20229;-74
2021/11/04 03:16:53;;;;;;;23.10;21.08;;;;;;;7.81;100.00;97870.28;2105534;28;20221;-74
2021/11/04 03:17:54;;;;;;;23.90;21.42;;;;;;;7.79;100.00;97874.34;2104391;28;20283;-74
2021/11/04 03:18:57;;;;;;;23.80;21.58;;;;;;;7.76;100.00;97874.97;2104781;28;20225;-74
2021/11/04 03:19:59;;;;;;;23.75;21.50;;;;;;;7.75;100.00;97886.69;2105540;28;20710;-74
2021/11/04 03:21:02;;;;;;;24.67;22.17;;;;;;;7.75;100.00;97878.72;2105553;28;20217;-75
2021/11/04 03:22:04;;;;;;;23.70;21.40;;;;;;;7.71;100.00;97886.50;2103860;28;20221;-76
2021/11/04 03:23:06;;;;;;;23.45;21.25;;;;;;;7.70;100.00;97890.25;2104683;28;20228;-75
2021/11/04 03:24:07;;;;;;;24.48;21.95;;;;;;;7.67;100.00;97882.91;2104420;28;20230;-75
2021/11/04 03:25:10;;;;;;;24.02;21.50;;;;;;;7.68;100.00;97887.13;2105455;28;20241;-75
2021/11/04 03:26:11;;;;;;;23.55;21.05;;;;;;;7.65;100.00;97874.47;2105468;28;20232;-75
2021/11/04 03:27:20;;;;;;;23.45;21.25;;;;;;;7.66;100.00;97876.03;2104020;28;20229;-76
2021/11/04 03:28:24;;;;;;;23.60;21.40;;;;;;;7.65;100.00;97863.84;2104931;28;20308;-76
2021/11/04 03:29:27;;;;;;;23.13;20.92;;;;;;;7.64;100.00;97868.38;2105205;28;20221;-75
2021/11/04 03:30:36;;;;;;;24.05;21.58;;;;;;;7.62;100.00;97870.53;2105545;28;20217;-75
2021/11/04 03:31:38;;;;;;;25.15;21.13;;;;;;;7.60;100.00;97871.94;2103811;28;20221;-75
2021/11/04 03:32:41;;;;;;;23.85;21.45;;;;;;;7.59;100.00;97870.38;2095767;28;20305;-75
2021/11/04 03:33:45;;;;;;;23.27;21.00;;;;;;;7.59;100.00;97870.38;2104554;28;20773;-76
2021/11/04 03:34:48;;;;;;;23.30;21.15;;;;;;;7.57;100.00;97860.06;2105432;28;20224;-76
2021/11/04 03:35:50;;;;;;;23.80;21.60;;;;;;;7.59;100.00;97862.41;2105540;28;20235;-76
2021/11/04 03:36:53;;;;;;;24.23;21.80;;;;;;;7.57;100.00;97868.03;2105434;28;20691;-75
2021/11/04 03:37:54;;;;;;;23.20;20.75;;;;;;;7.56;100.00;97877.06;2104230;28;20229;-76
2021/11/04 03:38:56;;;;;;;23.67;21.30;;;;;;;7.58;100.00;97879.41;2096270;28;20243;-75
2021/11/04 03:39:58;;;;;;;23.50;21.20;;;;;;;7.56;100.00;97873.63;2096345;28;20226;-75
2021/11/04 03:41:01;;;;;;;23.90;21.60;;;;;;;7.55;100.00;97874.69;2104443;28;20241;-75
2021/11/04 03:42:02;;;;;;;26.20;22.27;;;;;;;7.53;100.00;97872.34;2105450;28;20212;-75
2021/11/04 03:43:06;;;;;;;24.88;21.70;;;;;;;7.55;100.00;97861.44;2104292;28;20221;-76
2021/11/04 03:44:07;;;;;;;23.75;21.38;;;;;;;7.53;100.00;97866.25;2104572;28;20355;-76
2021/11/04 03:45:10;;;;;;;23.17;21.08;;;;;;;7.52;100.00;97864.69;2104928;28;20228;-75
2021/11/04 03:46:12;;;;;;;23.55;21.30;;;;;;;7.52;100.00;97870.00;2104606;28;20703;-75
2021/11/04 03:47:16;;;;;;;23.90;21.40;;;;;;;7.54;100.00;97865.16;2104562;28;20240;-75
2021/11/04 03:48:19;;;;;;;24.05;21.75;;;;;;;7.54;100.00;97862.53;2105387;28;20225;-75
2021/11/04 03:49:21;;;;;;;23.15;21.05;;;;;;;7.53;100.00;97868.91;2104644;28;20228;-76
2021/11/04 03:50:24;;;;;;;22.17;20.17;;;;;;;7.47;100.00;97857.66;2102185;28;20221;-75
2021/11/04 03:51:25;;;;;;;24.17;21.75;;;;;;;7.48;100.00;97850.50;2105321;28;20221;-75
2021/11/04 03:52:28;;;;;;;24.20;21.60;;;;;;;7.50;100.00;97857.06;2105359;28;20713;-76
2021/11/04 03:53:29;;;;;;;23.17;20.98;;;;;;;7.51;100.00;97863.13;2103805;28;20683;-75
2021/11/04 03:54:31;;;;;;;23.57;21.23;;;;;;;7.50;100.00;97862.34;2104642;28;20582;-75
2021/11/04 03:55:33;;;;;;;23.02;21.02;;;;;;;7.48;100.00;97855.81;2105402;28;21035;-75
2021/11/04 03:56:35;;;;;;;23.85;21.75;;;;;;;7.49;100.00;97849.41;2104550;28;20225;-76
2021/11/04 03:57:39;;;;;;;23.75;21.50;;;;;;;7.50;100.00;97845.66;2104666;28;20228;-75
2021/11/04 03:58:42;;;;;;;24.30;21.88;;;;;;;7.46;100.00;97853.44;2111716;28;20225;-75
2021/11/04 03:59:43;;;;;;;23.35;21.15;;;;;;;7.47;100.00;97851.56;2104489;28;20224;-75
2021/11/04 04:00:45;;;;;;;23.67;21.23;;;;;;;7.49;100.00;97849.41;2104640;28;20225;-75
2021/11/04 04:01:46;;;;;;;24.33;21.92;;;;;;;7.46;100.00;97840.16;2104053;28;20710;-76
2021/11/04 04:02:51;;;;;;;24.10;21.70;;;;;;;7.50;100.00;97850.97;2094067;28;20257;-76
2021/11/04 04:03:52;;;;;;;22.83;20.83;;;;;;;7.56;100.00;97847.09;2097197;28;20230;-80
2021/11/04 04:04:55;;;;;;;23.03;20.93;;;;;;;7.58;100.00;97847.56;2090597;28;20306;-80
2021/11/04 04:06:00;;;;;;;23.60;21.20;;;;;;;7.61;100.00;97834.47;2095815;28;20237;-81
2021/11/04 04:07:02;;;;;;;23.55;21.45;;;;;;;7.60;100.00;97827.59;2095736;28;20225;-79
2021/11/04 04:08:05;;;;;;;22.88;20.75;;;;;;;7.61;100.00;97831.03;2095997;28;20222;-85
2021/11/04 04:09:08;;;;;;;22.30;20.13;;;;;;;7.60;100.00;97832.09;2104861;28;20296;-84
2021/11/04 04:10:09;;;;;;;22.92;20.83;;;;;;;7.64;100.00;97835.72;2096812;28;20233;-83
2021/11/04 04:11:11;;;;;;;22.90;20.70;;;;;;;7.62;100.00;97820.09;2096091;28;20226;-84
2021/11/04 04:12:13;;;;;;;23.83;21.60;;;;;;;7.65;100.00;97814.19;2096363;28;20222;-83
2021/11/04 04:13:14;;;;;;;22.93;20.90;;;;;;;7.76;100.00;97812.03;2096810;28;20272;-84
2021/11/04 04:14:17;;;;;;;22.17;20.17;;;;;;;7.69;100.00;97817.00;2096023;28;20580;-84
2021/11/04 04:15:19;;;;;;;22.70;20.60;;;;;;;7.71;100.00;97819.34;2096245;28;20268;-83
2021/11/04 04:16:21;;;;;;;22.63;20.52;;;;;;;7.70;100.00;97823.88;2095891;28;20214;-83
2021/11/04 04:17:23;;;;;;;22.88;20.67;;;;;;;7.70;100.00;97821.22;2095963;28;20232;-81
2021/11/04 04:18:24;;;;;;;23.05;20.77;;;;;;;7.71;100.00;97829.97;2104603;28;20492;-84
2021/11/04 04:19:25;;;;;;;23.63;21.50;;;;;;;7.68;100.00;97820.75;2104639;28;20225;-84
2021/11/04 04:20:27;;;;;;;23.33;21.33;;;;;;;7.73;100.00;97812.66;2096075;28;20222;-83
2021/11/04 04:21:29;;;;;;;23.17;21.08;;;;;;;7.75;100.00;97810.47;2104679;28;20217;-83
2021/11/04 04:22:30;;;;;;;22.42;20.42;;;;;;;7.77;100.00;97813.59;2104047;28;20315;-83
2021/11/04 04:23:32;;;;;;;22.20;20.30;;;;;;;7.83;100.00;97801.75;2096017;28;20351;-83
2021/11/04 04:24:33;;;;;;;22.42;20.42;;;;;;;7.83;100.00;97793.78;2104576;28;20239;-79
2021/11/04 04:25:34;;;;;;;22.10;20.15;;;;;;;7.83;100.00;97796.44;2103890;28;20300;-79
2021/11/04 04:26:35;;;;;;;22.27;20.02;;;;;;;7.84;100.00;97798.00;2096045;28;20222;-79
2021/11/04 04:27:37;;;;;;;21.60;19.63;;;;;;;7.82;100.00;97794.88;2095361;28;20222;-79
2021/11/04 04:28:38;;;;;;;22.35;20.35;;;;;;;7.82;100.00;97800.19;2104189;28;20232;-78
2021/11/04 04:29:43;;;;;;;22.87;20.57;;;;;;;7.76;100.00;97788.13;2105099;28;20248;-79
2021/11/04 04:30:45;;;;;;;21.58;19.42;;;;;;;7.94;100.00;97794.28;2105011;28;20245;-79
2021/11/04 04:31:49;;;;;;;23.88;21.45;;;;;;;7.91;100.00;97794.91;2105091;28;20245;-79
2021/11/04 04:32:49;;;;;;;21.75;19.67;;;;;;;7.86;100.00;97790.50;2103850;28;20221;-79
2021/11/04 04:33:51;;;;;;;22.47;20.37;;;;;;;7.83;100.00;97798.31;2104468;28;20248;-79
2021/11/04 04:34:52;;;;;;;23.02;20.65;;;;;;;7.79;100.00;97787.50;2103878;28;20217;-78
2021/11/04 04:35:55;;;;;;;22.00;20.10;;;;;;;7.76;100.00;97788.13;2104555;28;20217;-78
2021/11/04 04:36:57;;;;;;;22.92;20.83;;;;;;;7.76;100.00;97790.78;2105187;28;20217;-79
2021/11/04 04:37:59;;;;;;;23.83;21.52;;;;;;;7.77;100.00;97791.56;2103896;28;20335;-78
2021/11/04 04:39:01;;;;;;;23.30;21.20;;;;;;;7.77;100.00;97786.25;2104318;28;20305;-78
2021/11/04 04:40:01;;;;;;;22.38;20.08;;;;;;;7.79;100.00;97784.06;2104450;28;21030;-78
2021/11/04 04:41:03;;;;;;;22.43;20.40;;;;;;;7.79;100.00;97776.09;2105094;28;20338;-79
2021/11/04 04:42:05;;;;;;;21.05;19.33;;;;;;;7.77;100.00;97779.06;2104321;28;20629;-78
2021/11/04 04:43:07;;;;;;;22.88;20.67;;;;;;;7.79;100.00;97784.84;2104398;28;20229;-79
2021/11/04 04:44:08;;;;;;;22.55;20.45;;;;;;;7.78;100.00;97780.63;2103510;28;20603;-78
2021/11/04 04:45:11;;;;;;;22.63;20.57;;;;;;;7.77;100.00;97775.63;2104183;28;20308;-79
2021/11/04 04:46:12;;;;;;;22.35;20.20;;;;;;;7.81;100.00;97787.97;2103877;28;20299;-78
2021/11/04 04:47:14;;;;;;;23.40;21.30;;;;;;;7.78;100.00;97775.31;2104418;28;20222;-78